Accueil
METAR-TAF:

METAR-TAF

Aéroports :

Aéroport de Bou Saâda

Bou Saâda, Algérie

latitude: 35-20N, longitude: 004-12E, altitude: 461 m

Observation

Le bulletin a été fait il y a 3 heures et 35 minutes, à 18:00 UTC
Vent 12 kt de nord/nord-est
Température 21°C
Humidité 56%
Pression 1021 hPa
Visibilité 10 km ou plus
Quelques nuages à une hauteur de 2600 ft
Nuages fragmentés à une hauteur de 20000 ft

METAR: DAAD 061800Z 02012KT 9999 FEW026 BKN200 21/12 Q1021

Heure: 22:35 (21:35 UTC)

Prévision

Le bulletin a été fait il y a 4 heures et 35 minutes, à 17:00 UTC
Prévision valable du 06 à 18 UTC au 07 à 03 UTC
Vent 10 kt de nord/nord-ouest
Visibilité 10 km ou plus
Quelques nuages à une hauteur de 2600 ft
Nuages épars à une hauteur de 20000 ft

TAF: DAAD 061700Z 0618/0703 34010KT 9999 FEW026 SCT200

Observations et prévisions météorologiques de plus de 4000 aéroports (messages METAR et TAF).

Les stations disponibles sont représentées par des disques jaunes et rouges sur la carte.

Passer la souris dessus pour voir le nom de la station.

Cliquer dessus pour voir les observations et prévisions météorologiques.

Pour changer de carte: cliquez sur les boutons verts avec une croix noire pour zoomer, sur le bouton vert avec un tiret pour effectuer un zoom arrière, ou sur les flèches vertes pour les cartes adjacentes.


METAR-TAF: